Terminal Aerodrome Forecast
Issued by NWS

Home | Current Version | Previous Version | Text Only | Print | Product List | Glossary On
Versions: 1 2 3 4 5 6 7 8 9 10 11 12 13 14 15 16 17 18 19 20 21 22 23 24 25 26 27 28 29
000
FTUS41 KRNK 171505 AAD
TAFBCB
TAF AMD
KBCB 171505Z 1715/1812 00000KT 1 1/2SM -RA BKN004 OVC030
     FM171600 21005KT 3SM SHRA BR SCT004 OVC035
      TEMPO 1716/1718 OVC015
     FM171800 22008KT P6SM VCSH OVC050
     FM180200 24006KT P6SM VCSH OVC015
     FM180800 28007KT 5SM BR OVC015=

USA.gov is the U.S. government's official web portal to all federal, state and local government web resources and services.